createdAt,value
2023-01-15T00:01:50.798Z,65.80
2023-01-15T00:06:56.696Z,65.48
2023-01-15T00:12:01.146Z,65.90
2023-01-15T00:17:08.754Z,65.62
2023-01-15T00:22:15.740Z,65.89
2023-01-15T00:27:38.415Z,66.28
2023-01-15T00:32:43.928Z,65.31
2023-01-15T00:38:01.153Z,65.23
2023-01-15T00:43:04.647Z,65.20
2023-01-15T00:48:12.010Z,65.85
2023-01-15T00:53:14.947Z,66.11
2023-01-15T00:58:19.820Z,66.13
2023-01-15T01:03:23.017Z,65.76
2023-01-15T01:08:24.908Z,66.05
2023-01-15T01:13:26.832Z,66.68
2023-01-15T01:18:29.091Z,66.47
2023-01-15T01:23:32.774Z,66.84
2023-01-15T01:28:38.145Z,66.13
2023-01-15T01:33:41.729Z,66.59
2023-01-15T01:38:44.215Z,67.32
2023-01-15T01:43:56.765Z,66.99
2023-01-15T01:49:09.391Z,67.47
2023-01-15T01:54:16.052Z,67.56
2023-01-15T01:59:20.935Z,66.71
2023-01-15T02:05:21.679Z,67.19
2023-01-15T02:10:23.913Z,67.66
2023-01-15T02:15:32.713Z,68.38
2023-01-15T02:21:24.794Z,68.42
2023-01-15T02:32:48.648Z,67.71
2023-01-15T02:38:06.342Z,67.42
2023-01-15T02:43:27.528Z,66.97
2023-01-15T02:48:43.918Z,66.68
2023-01-15T02:54:08.285Z,67.24
2023-01-15T02:59:20.932Z,66.78
2023-01-15T03:05:06.468Z,66.87
2023-01-15T03:16:20.388Z,67.37
2023-01-15T03:22:07.282Z,66.80
2023-01-15T03:27:16.030Z,67.08
2023-01-15T03:37:54.314Z,67.22
2023-01-15T03:43:34.593Z,67.00
2023-01-15T03:49:04.270Z,67.58
2023-01-15T03:54:15.870Z,66.86
2023-01-15T03:59:40.751Z,67.55
2023-01-15T04:04:45.845Z,67.35
2023-01-15T04:09:53.995Z,67.42
2023-01-15T04:14:56.268Z,67.67
2023-01-15T04:19:58.248Z,67.73
2023-01-15T04:25:00.359Z,67.83
2023-01-15T04:30:30.302Z,68.49
2023-01-15T04:35:36.446Z,67.40
2023-01-15T04:40:59.366Z,67.94
2023-01-15T04:46:13.476Z,67.57
2023-01-15T04:51:20.921Z,67.56
2023-01-15T04:56:26.587Z,67.37
2023-01-15T05:07:46.584Z,67.95
2023-01-15T05:12:48.643Z,67.27
2023-01-15T05:37:36.501Z,67.45
2023-01-15T05:42:38.333Z,67.45
2023-01-15T05:52:56.418Z,67.24
2023-01-15T05:58:08.531Z,67.42
2023-01-15T06:03:14.124Z,67.74
2023-01-15T06:08:32.710Z,67.70
2023-01-15T06:13:47.404Z,67.38
2023-01-15T06:19:01.995Z,66.52
2023-01-15T06:24:10.036Z,67.31
2023-01-15T06:29:22.157Z,66.46
2023-01-15T06:34:29.431Z,67.21
2023-01-15T06:39:33.777Z,66.56
2023-01-15T06:44:54.254Z,67.25
2023-01-15T06:49:58.020Z,66.92
2023-01-15T06:55:02.538Z,66.69
2023-01-15T07:00:04.647Z,66.52
2023-01-15T07:05:06.769Z,66.50
2023-01-15T07:10:09.336Z,66.73
2023-01-15T07:15:14.344Z,66.92
2023-01-15T07:20:18.848Z,66.57
2023-01-15T07:25:20.803Z,66.15
2023-01-15T07:30:22.753Z,66.35
2023-01-15T07:35:24.609Z,65.10
2023-01-15T07:40:26.516Z,65.52
2023-01-15T07:45:46.875Z,65.38
2023-01-15T07:50:48.793Z,65.04
2023-01-15T07:55:50.765Z,64.31
2023-01-15T08:00:53.091Z,64.47
2023-01-15T08:05:56.846Z,63.86
2023-01-15T08:11:20.781Z,63.34
2023-01-15T08:16:22.720Z,63.26
2023-01-15T08:21:24.655Z,61.42
2023-01-15T08:26:26.726Z,58.75
2023-01-15T08:31:28.634Z,56.35
2023-01-15T08:36:30.825Z,55.82
2023-01-15T08:41:32.686Z,54.72
2023-01-15T08:46:34.503Z,54.85
2023-01-15T08:51:36.530Z,54.10
2023-01-15T08:56:41.806Z,53.89
2023-01-15T09:01:45.582Z,51.13
2023-01-15T09:06:54.793Z,48.62
2023-01-15T09:11:59.412Z,48.68
2023-01-15T09:17:14.166Z,48.47
2023-01-15T09:22:21.224Z,49.57
2023-01-15T09:27:31.527Z,49.26
2023-01-15T09:32:38.833Z,49.22
2023-01-15T09:37:40.728Z,50.54
2023-01-15T09:43:03.481Z,50.11
2023-01-15T09:48:37.561Z,50.93
2023-01-15T09:54:09.884Z,52.00
2023-01-15T09:59:46.071Z,51.50
2023-01-15T10:04:58.590Z,51.32
2023-01-15T10:10:11.989Z,50.77
2023-01-15T10:15:26.050Z,52.27
2023-01-15T10:20:57.655Z,50.17
2023-01-15T10:26:32.758Z,49.56
2023-01-15T10:32:29.835Z,48.58
2023-01-15T10:37:45.750Z,49.43
2023-01-15T10:43:10.739Z,49.10
2023-01-15T10:48:29.852Z,46.64
2023-01-15T10:54:27.686Z,45.56
2023-01-15T10:59:59.985Z,44.78
2023-01-15T11:05:03.800Z,46.79
2023-01-15T11:10:15.496Z,44.68
2023-01-15T11:15:48.625Z,45.73
2023-01-15T11:20:57.942Z,46.19
2023-01-15T11:26:03.524Z,46.03
2023-01-15T11:31:20.980Z,44.07
2023-01-15T11:36:35.813Z,43.53
2023-01-15T11:42:11.119Z,44.61
2023-01-15T11:47:35.949Z,44.37
2023-01-15T11:52:55.084Z,42.49
2023-01-15T11:58:00.154Z,43.39
2023-01-15T12:03:12.225Z,42.04
2023-01-15T12:08:46.075Z,40.61
2023-01-15T12:14:09.136Z,42.71
2023-01-15T12:20:11.857Z,41.13
2023-01-15T12:26:05.159Z,40.68
2023-01-15T12:31:24.410Z,40.80
2023-01-15T12:36:43.256Z,41.90
2023-01-15T12:42:12.583Z,42.86
2023-01-15T12:47:38.801Z,41.72
2023-01-15T12:52:50.062Z,42.96
2023-01-15T12:57:57.273Z,43.32
2023-01-15T13:03:31.508Z,42.83
2023-01-15T13:08:55.371Z,42.21
2023-01-15T13:14:02.689Z,42.99
2023-01-15T13:19:40.281Z,40.77
2023-01-15T13:25:02.001Z,41.50
2023-01-15T13:30:31.740Z,41.51
2023-01-15T13:36:02.315Z,42.56
2023-01-15T13:41:08.541Z,44.44
2023-01-15T13:46:14.213Z,44.40
2023-01-15T13:51:46.221Z,43.80
2023-01-15T13:56:49.062Z,43.73
2023-01-15T14:01:56.916Z,44.32
2023-01-15T14:12:54.614Z,43.84
2023-01-15T14:18:27.186Z,46.21
2023-01-15T14:23:53.597Z,47.44
2023-01-15T14:29:32.658Z,47.58
2023-01-15T14:34:37.801Z,46.55
2023-01-15T14:39:58.303Z,47.79
2023-01-15T14:45:31.270Z,47.94
2023-01-15T14:50:45.144Z,48.68
2023-01-15T14:55:49.942Z,48.72
2023-01-15T15:00:55.919Z,49.45
2023-01-15T15:05:58.246Z,49.81
2023-01-15T15:11:28.157Z,50.22
2023-01-15T15:22:04.888Z,50.83
2023-01-15T15:27:22.157Z,52.22
2023-01-15T15:32:25.476Z,52.21
2023-01-15T15:37:28.908Z,52.43
2023-01-15T15:42:53.394Z,52.43
2023-01-15T15:48:15.498Z,52.61
2023-01-15T15:53:17.734Z,53.69
2023-01-15T15:58:35.905Z,53.73
2023-01-15T16:03:46.339Z,54.11
2023-01-15T16:09:04.951Z,53.48
2023-01-15T16:14:10.190Z,53.47
2023-01-15T16:19:18.734Z,53.78
2023-01-15T16:24:27.596Z,53.36
2023-01-15T16:29:32.189Z,53.12
2023-01-15T16:34:34.800Z,53.52
2023-01-15T16:39:43.830Z,53.30
2023-01-15T16:44:53.015Z,53.04
2023-01-15T16:50:20.297Z,52.91
2023-01-15T16:55:34.203Z,52.43
2023-01-15T17:00:36.079Z,52.78
2023-01-15T17:05:37.930Z,51.88
2023-01-15T17:10:39.881Z,51.77
2023-01-15T17:15:45.266Z,51.01
2023-01-15T17:20:47.506Z,51.14
2023-01-15T17:25:49.467Z,50.92
2023-01-15T17:30:53.302Z,51.01
2023-01-15T17:35:56.672Z,51.03
2023-01-15T17:40:59.491Z,50.87
2023-01-15T17:46:10.723Z,50.69
2023-01-15T17:51:14.038Z,51.00
2023-01-15T17:56:34.462Z,51.24
2023-01-15T18:02:01.852Z,50.62
2023-01-15T18:07:04.504Z,50.71
2023-01-15T18:12:06.791Z,50.34
2023-01-15T18:17:08.765Z,50.39
2023-01-15T18:22:12.649Z,48.76
2023-01-15T18:27:22.196Z,48.52
2023-01-15T18:32:24.385Z,49.32
2023-01-15T18:37:26.473Z,49.05
2023-01-15T18:42:46.835Z,48.96
2023-01-15T18:47:48.775Z,47.98
2023-01-15T18:52:50.647Z,48.35
2023-01-15T18:58:04.115Z,48.75
2023-01-15T19:03:06.529Z,49.55
2023-01-15T19:08:11.005Z,50.24
2023-01-15T19:13:17.497Z,50.03
2023-01-15T19:18:41.043Z,50.40
2023-01-15T19:23:47.339Z,50.00
2023-01-15T19:28:57.379Z,50.09
2023-01-15T19:34:31.717Z,50.04
2023-01-15T19:39:29.809Z,49.76
2023-01-15T19:55:50.828Z,49.91
2023-01-15T20:00:54.853Z,50.35
2023-01-15T20:06:09.916Z,50.06
2023-01-15T20:11:16.237Z,49.90
2023-01-15T20:16:26.998Z,50.41
2023-01-15T20:21:28.932Z,50.68
2023-01-15T20:26:31.107Z,50.84
2023-01-15T20:31:47.518Z,50.44
2023-01-15T20:36:53.610Z,51.00
2023-01-15T20:48:00.276Z,50.82
2023-01-15T20:53:03.920Z,50.95
2023-01-15T20:58:14.713Z,52.73
2023-01-15T21:03:29.543Z,60.52
2023-01-15T21:08:32.583Z,62.08
2023-01-15T21:13:34.719Z,63.65
2023-01-15T21:18:38.291Z,64.37
2023-01-15T21:23:53.327Z,65.71
2023-01-15T21:28:58.997Z,66.37
2023-01-15T21:34:12.570Z,66.17
2023-01-15T21:39:21.755Z,68.47
2023-01-15T21:44:35.227Z,67.57
2023-01-15T21:49:45.251Z,69.91
2023-01-15T22:00:17.937Z,69.44
2023-01-15T22:05:25.414Z,71.44
2023-01-15T22:10:35.338Z,69.57
2023-01-15T22:15:37.260Z,69.63
2023-01-15T22:20:39.949Z,70.03
2023-01-15T22:25:51.146Z,71.00
2023-01-15T22:30:55.446Z,69.37
2023-01-15T22:35:59.737Z,68.53
2023-01-15T22:41:01.668Z,68.70
2023-01-15T22:46:12.102Z,69.59
2023-01-15T22:51:14.051Z,68.74
2023-01-15T22:56:15.869Z,67.70
2023-01-15T23:01:18.571Z,67.60
2023-01-15T23:06:24.415Z,67.80
2023-01-15T23:11:27.893Z,67.24
2023-01-15T23:16:29.761Z,65.85
2023-01-15T23:21:32.082Z,63.95
2023-01-15T23:26:34.972Z,63.81
2023-01-15T23:31:36.983Z,61.53
2023-01-15T23:36:39.477Z,60.42
2023-01-15T23:42:00.216Z,59.28
2023-01-15T23:47:02.153Z,58.69
2023-01-15T23:52:04.647Z,57.32
2023-01-15T23:57:08.696Z,56.88
